Thunderstorms From: 21-05-2018 15:00 Until: 22-05-2018 15:00 warning for: Thunderstorms Level: Yellow info button

Although rather usual in this region, locally or potentially dangerous phenomena are expected. (such as local winds, summer thunderstorms, rising streams or high waves) Be aware and pay attention to the latest weather updates, especially if you carry out activities exposed to weather or close to a stream or shoreline. 


Meteo18 Weather Cam more information Meteo18 Weather Cam


warning for Thunderstorms more information blitzortung!


Rain radar more information rain snow radar


Visit our other weather sites:

Template documentation
and downloads

And another site



Weather Underground History page Text

Daily Summary for November 12, 2017 Units:  Metric    English   Both
« Previous Day
Next Day »
Daily Weekly Monthly Yearly Custom
  High: Low: Average:
Temperature: -17.8 °C -15.4 °C -13.3 °C
Dew Point: -17.8 °C -16.7 °C -14.3 °C
Humidity: Humidity % 76 % 88 %
Wind Speed: 0 km/h 0 km/h 23.8 km/h
Wind Gust: 0 km/h - -
Wind:- - WNW
Pressure: 0 hPa 34073.3 hPa -
Precipitation: 129.54 mm    
Historical Graphs
 
 
Tabular Data for November 12, 2017
Time Temperature Dew Point Pressure Wind Wind Speed Wind Gust Humidity Rainfall Rate (Hourly)
-17.8 °C -17.8 °C 0 hPa Calm     Humidity % 0 mm
00:02 -11.1 °C -11.6 °C 34395 hPa West 10.3 km/h 44.1 km/h 94 % 7.62 mm
00:07 -11.1 °C -11.6 °C 34395 hPa WSW 20.8 km/h 44.1 km/h 95 % 7.62 mm
00:12 -11.1 °C -11.6 °C 34395 hPa West 12.9 km/h 33.6 km/h 95 % 7.62 mm
00:17 -11.2 °C -11.6 °C 34395 hPa West 20.8 km/h 33.6 km/h 95 % 0 mm
00:22 -11.2 °C -11.6 °C 34395 hPa WNW 15.6 km/h 36.2 km/h 95 % 0 mm
00:32 -11.2 °C -11.6 °C 34395 hPa WSW 20.8 km/h 36.2 km/h 95 % 7.62 mm
00:42 -11.2 °C -11.7 °C 34395 hPa West 25.9 km/h 33.6 km/h 95 % 7.62 mm
00:47 -11.2 °C -11.7 °C 34395 hPa West 15.6 km/h 33.6 km/h 95 % 7.62 mm
00:57 -11.2 °C -11.7 °C 34384.8 hPa West 18.2 km/h 31.1 km/h 95 % 7.62 mm
01:02 -11.2 °C -11.7 °C 34384.8 hPa WSW 20.8 km/h 38.8 km/h 95 % 7.62 mm
01:07 -11.2 °C -11.6 °C 34384.8 hPa West 23.3 km/h 38.8 km/h 95 % 7.62 mm
01:12 -11.2 °C -11.7 °C 34384.8 hPa West 18.2 km/h 46.7 km/h 95 % 7.62 mm
01:17 -11.2 °C -11.7 °C 34384.8 hPa WSW 31.1 km/h 46.7 km/h 95 % 7.62 mm
01:22 -11.3 °C -11.7 °C 34384.8 hPa West 18.2 km/h 44.1 km/h 95 % 7.62 mm
01:27 -11.3 °C -11.7 °C 34384.8 hPa WSW 25.9 km/h 46.7 km/h 95 % 12.7 mm
01:32 -11.3 °C -11.7 °C 34371.3 hPa West 25.9 km/h 46.7 km/h 95 % 7.62 mm
01:37 -11.3 °C -11.7 °C 34384.8 hPa WNW 12.9 km/h 44.1 km/h 95 % 7.62 mm
01:42 -11.3 °C -11.7 °C 34371.3 hPa West 25.9 km/h 51.8 km/h 95 % 7.62 mm
01:47 -11.3 °C -11.8 °C 34371.3 hPa West 23.3 km/h 51.8 km/h 95 % 7.62 mm
01:52 -11.3 °C -11.8 °C 34371.3 hPa West 25.9 km/h 38.8 km/h 95 % 7.62 mm
01:57 -11.3 °C -11.8 °C 34371.3 hPa West 15.6 km/h 46.7 km/h 95 % 7.62 mm
02:02 -11.3 °C -11.8 °C 34371.3 hPa WNW 18.2 km/h 46.7 km/h 94 % 7.62 mm
02:07 -11.3 °C -11.8 °C 34371.3 hPa WSW 20.8 km/h 38.8 km/h 94 % 7.62 mm
02:12 -11.3 °C -11.8 °C 34371.3 hPa West 31.1 km/h 41.4 km/h 94 % 7.62 mm
02:17 -11.3 °C -11.8 °C 34371.3 hPa West 20.8 km/h 46.7 km/h 94 % 7.62 mm
02:22 -11.6 °C -12.1 °C 34371.3 hPa West 25.9 km/h 46.7 km/h 94 % 0 mm
02:27 -11.6 °C -12.1 °C 34371.3 hPa WSW 20.8 km/h 46.7 km/h 94 % 0 mm
02:32 -11.6 °C -12.1 °C 34361.1 hPa WSW 20.8 km/h 44.1 km/h 94 % 0 mm
02:37 -11.6 °C -12.1 °C 34361.1 hPa WSW 20.8 km/h 36.2 km/h 94 % 0 mm
09:07 -11.7 °C -12.3 °C 34212.1 hPa WNW 25.9 km/h 59.5 km/h 93 % 0 mm
09:12 -11.7 °C -12.3 °C 34222.3 hPa SSW 20.8 km/h 67.3 km/h 93 % 0 mm
09:17 -11.7 °C -12.3 °C 34212.1 hPa WSW 33.6 km/h 67.3 km/h 93 % 0 mm
09:22 -11.7 °C -12.3 °C 34212.1 hPa West 38.8 km/h 72.6 km/h 93 % 0 mm
09:27 -11.7 °C -12.3 °C 34198.6 hPa WSW 25.9 km/h 72.6 km/h 93 % 0 mm
09:32 -11.7 °C -12.3 °C 34212.1 hPa West 20.8 km/h 72.6 km/h 93 % 0 mm
09:42 -11.7 °C -12.3 °C 34212.1 hPa WSW 15.6 km/h 64.7 km/h 93 % 0 mm
09:47 -11.6 °C -12.3 °C 34198.6 hPa WSW 44.1 km/h 64.7 km/h 92 % 0 mm
09:52 -11.6 °C -12.3 °C 34198.6 hPa WSW 36.2 km/h 59.5 km/h 92 % 0 mm
10:02 -11.6 °C -12.3 °C 34198.6 hPa WSW 18.2 km/h 69.8 km/h 92 % 0 mm
10:07 -11.6 °C -12.3 °C 34198.6 hPa WSW 36.2 km/h 75.2 km/h 92 % 0 mm
10:12 -11.6 °C -12.3 °C 34198.6 hPa WSW 33.6 km/h 85.5 km/h 92 % 0 mm
10:17 -11.6 °C -12.3 °C 34198.6 hPa WSW 25.9 km/h 85.5 km/h 92 % 0 mm
10:22 -11.6 °C -12.2 °C 34188.4 hPa WSW 25.9 km/h 85.5 km/h 93 % 0 mm
10:32 -11.6 °C -12.2 °C 34188.4 hPa SW 44.1 km/h 67.3 km/h 93 % 0 mm
10:42 -11.6 °C -12.1 °C 34178.3 hPa SW 31.1 km/h 54.4 km/h 94 % 0 mm
10:52 -11.6 °C -12.1 °C 34178.3 hPa WSW 25.9 km/h 54.4 km/h 95 % 7.62 mm
10:57 -11.6 °C -12.1 °C 34178.3 hPa WSW 18.2 km/h 62.1 km/h 95 % 12.7 mm
11:02 -11.6 °C -12.1 °C 34178.3 hPa West 36.2 km/h 62.1 km/h 95 % 12.7 mm
11:12 -11.6 °C -12 °C 34178.3 hPa WSW 25.9 km/h 59.5 km/h 95 % 12.7 mm
11:17 -11.6 °C -12 °C 34164.7 hPa West 15.6 km/h 59.5 km/h 95 % 12.7 mm
11:22 -11.6 °C -12 °C 34164.7 hPa West 28.5 km/h 51.8 km/h 95 % 12.7 mm
11:32 -11.5 °C -12 °C 34144.4 hPa WSW 33.6 km/h 51.8 km/h 94 % 12.7 mm
11:42 -11.4 °C -11.9 °C 34144.4 hPa West 54.4 km/h 57 km/h 94 % 12.7 mm
11:47 -11.4 °C -11.9 °C 34144.4 hPa WSW 28.5 km/h 57 km/h 94 % 7.62 mm
11:52 -11.3 °C -11.8 °C 34130.9 hPa NW 28.5 km/h 57 km/h 94 % 0 mm
11:57 -11.3 °C -11.8 °C 34130.9 hPa WSW 36.2 km/h 64.7 km/h 94 % 0 mm
12:02 -11.3 °C -11.8 °C 34130.9 hPa WSW 25.9 km/h 64.7 km/h 94 % 0 mm
12:07 -11.3 °C -11.9 °C 34120.7 hPa West 41.4 km/h 64.7 km/h 93 % 0 mm
12:12 -11.3 °C -11.8 °C 34120.7 hPa WSW 33.6 km/h 64.7 km/h 94 % 0 mm
12:17 -11.3 °C -11.8 °C 34120.7 hPa WSW 31.1 km/h 64.7 km/h 94 % 0 mm
12:32 -11.3 °C -11.9 °C 34097 hPa WSW 38.8 km/h 51.8 km/h 93 % 7.62 mm
12:37 -11.2 °C -11.8 °C 34097 hPa West 33.6 km/h 85.5 km/h 93 % 7.62 mm
12:42 -11.2 °C -11.8 °C 34086.9 hPa West 31.1 km/h 85.5 km/h 93 % 7.62 mm
12:47 -11.2 °C -11.8 °C 34086.9 hPa West 36.2 km/h 85.5 km/h 93 % 7.62 mm
12:52 -11.1 °C -11.7 °C 34086.9 hPa West 36.2 km/h 72.6 km/h 93 % 7.62 mm
12:57 -11.1 °C -11.7 °C 34073.3 hPa West 44.1 km/h 67.3 km/h 93 % 7.62 mm
13:02 -11.1 °C -11.7 °C 34073.3 hPa West 38.8 km/h 67.3 km/h 93 % 7.62 mm
13:07 -11.1 °C -11.7 °C 34073.3 hPa WSW 46.7 km/h 69.8 km/h 93 % 7.62 mm
13:12 -11.1 °C -11.7 °C 34073.3 hPa West 59.5 km/h 69.8 km/h 93 % 7.62 mm
13:17 -11.1 °C -11.7 °C 34073.3 hPa West 31.1 km/h 77.7 km/h 93 % 7.62 mm
13:22 -11.1 °C -11.7 °C 34107.2 hPa NW 23.3 km/h 77.7 km/h 93 % 0 mm
13:27 -11.6 °C -12.5 °C 34120.7 hPa NNW 44.1 km/h 85.5 km/h 89 % 45.72 mm
13:32 -12 °C -12.8 °C 34120.7 hPa NW 25.9 km/h 85.5 km/h 91 % 50.8 mm
13:37 -12.3 °C -12.9 °C 34120.7 hPa NW 41.4 km/h 85.5 km/h 92 % 58.42 mm
13:42 -12.3 °C -12.9 °C 34107.2 hPa WNW 25.9 km/h 69.8 km/h 93 % 63.5 mm
13:47 -12.4 °C -13 °C 34120.7 hPa NW 25.9 km/h 64.7 km/h 93 % 63.5 mm
13:52 -12.4 °C -13 °C 34130.9 hPa North 36.2 km/h 59.5 km/h 93 % 63.5 mm
13:57 -12.9 °C -13.7 °C 34144.4 hPa North 33.6 km/h 62.1 km/h 91 % 71.12 mm
14:02 -13.2 °C -13.8 °C 34144.4 hPa NW 36.2 km/h 62.1 km/h 92 % 71.12 mm
14:07 -13.3 °C -13.9 °C 34144.4 hPa NNW 38.8 km/h 69.8 km/h 93 % 76.2 mm
14:12 -13.4 °C -14 °C 34144.4 hPa NNE 25.9 km/h 69.8 km/h 93 % 83.82 mm
14:17 -13.4 °C -14 °C 34154.6 hPa NNW 15.6 km/h 69.8 km/h 93 % 83.82 mm
14:22 -13.5 °C -14.1 °C 34154.6 hPa WNW 18.2 km/h 54.4 km/h 93 % 83.82 mm
14:27 -13.5 °C -14 °C 34164.7 hPa NW 25.9 km/h 54.4 km/h 94 % 38.1 mm
14:32 -13.6 °C -14.1 °C 34154.6 hPa NW 38.8 km/h 54.4 km/h 94 % 38.1 mm
14:37 -13.6 °C -14.2 °C 34144.4 hPa WSW 20.8 km/h 49.2 km/h 93 % 38.1 mm
14:42 -13.5 °C -14.2 °C 34154.6 hPa NW 28.5 km/h 49.2 km/h 92 % 38.1 mm
14:47 -13.4 °C -14.2 °C 34144.4 hPa NW 10.3 km/h 46.7 km/h 91 % 38.1 mm
14:52 -13.4 °C -14.2 °C 34144.4 hPa NW 23.3 km/h 46.7 km/h 91 % 38.1 mm
14:57 -13.4 °C -14.2 °C 34144.4 hPa West 28.5 km/h 46.7 km/h 91 % 33.02 mm
15:02 -13.3 °C -14.1 °C 34154.6 hPa WNW 18.2 km/h 44.1 km/h 91 % 33.02 mm
15:07 -13.3 °C -14.1 °C 34154.6 hPa NNW 28.5 km/h 46.7 km/h 91 % 20.32 mm
15:17 -13.3 °C -14.2 °C 34144.4 hPa NW 20.8 km/h 54.4 km/h 89 % 12.7 mm
15:22 -13.3 °C -14.3 °C 34154.6 hPa NNW 31.1 km/h 54.4 km/h 88 % 12.7 mm
15:32 -13.2 °C -14.6 °C 34164.7 hPa WNW 25.9 km/h 64.7 km/h 85 % 7.62 mm
15:37 -13.2 °C -14.6 °C 34164.7 hPa NNW 31.1 km/h 77.7 km/h 84 % 0 mm
15:42 -13.2 °C -14.7 °C 34164.7 hPa WNW 23.3 km/h 77.7 km/h 83 % 0 mm
15:47 -13.3 °C -15.1 °C 34178.3 hPa WNW 44.1 km/h 54.4 km/h 80 % 0 mm
15:52 -13.3 °C -15.6 °C 34164.7 hPa WNW 20.8 km/h 77.7 km/h 76 % 0 mm
15:57 -13.4 °C -15.6 °C 34178.3 hPa West 33.6 km/h 77.7 km/h 77 % 0 mm
16:02 -13.6 °C -15.6 °C 34178.3 hPa NW 23.3 km/h 77.7 km/h 78 % 0 mm
16:07 -13.7 °C -15.6 °C 34188.4 hPa WNW 20.8 km/h 59.5 km/h 79 % 0 mm
16:12 -13.7 °C -15.6 °C 34188.4 hPa West 25.9 km/h 59.5 km/h 79 % 0 mm
16:17 -13.8 °C -15.7 °C 34188.4 hPa WNW 28.5 km/h 59.5 km/h 79 % 0 mm
16:22 -13.8 °C -15.7 °C 34198.6 hPa NW 36.2 km/h 59.5 km/h 79 % 0 mm
16:27 -13.8 °C -15.8 °C 34198.6 hPa WNW 41.4 km/h 62.1 km/h 78 % 0 mm
16:32 -13.7 °C -15.7 °C 34198.6 hPa WNW 41.4 km/h 62.1 km/h 78 % 0 mm
16:37 -13.7 °C -15.7 °C 34198.6 hPa NW 33.6 km/h 62.1 km/h 78 % 0 mm
16:42 -13.7 °C -15.7 °C 34212.1 hPa NNW 18.2 km/h 62.1 km/h 78 % 0 mm
16:47 -13.7 °C -15.7 °C 34212.1 hPa WNW 23.3 km/h 62.1 km/h 78 % 0 mm
16:52 -13.7 °C -15.7 °C 34212.1 hPa NW 15.6 km/h 54.4 km/h 78 % 0 mm
16:57 -13.8 °C -15.8 °C 34222.3 hPa NNW 15.6 km/h 54.4 km/h 78 % 0 mm
17:02 -13.8 °C -15.7 °C 34222.3 hPa NW 23.3 km/h 54.4 km/h 79 % 0 mm
17:07 -13.8 °C -15.7 °C 34222.3 hPa NW 20.8 km/h 49.2 km/h 79 % 0 mm
17:12 -13.8 °C -15.6 °C 34235.8 hPa WNW 23.3 km/h 49.2 km/h 80 % 0 mm
17:17 -13.9 °C -15.6 °C 34235.8 hPa WNW 28.5 km/h 36.2 km/h 82 % 0 mm
17:22 -14.1 °C -15.7 °C 34246 hPa NW 41.4 km/h 54.4 km/h 82 % 0 mm
17:27 -14.3 °C -15.8 °C 34246 hPa NNW 23.3 km/h 75.2 km/h 83 % 0 mm
17:32 -14.5 °C -16.1 °C 34246 hPa WNW 15.6 km/h 75.2 km/h 82 % 0 mm
17:42 -14.7 °C -16.2 °C 34246 hPa NW 10.3 km/h 57 km/h 82 % 0 mm
17:47 -14.7 °C -16.3 °C 34256.2 hPa NW 25.9 km/h 41.4 km/h 82 % 0 mm
17:52 -14.7 °C -16.4 °C 34256.2 hPa WNW 25.9 km/h 38.8 km/h 81 % 0 mm
17:57 -14.8 °C -16.4 °C 34256.2 hPa NW 18.2 km/h 44.1 km/h 81 % 0 mm
18:02 -14.8 °C -16.4 °C 34269.7 hPa WNW 18.2 km/h 44.1 km/h 81 % 0 mm
18:12 -14.8 °C -16.5 °C 34269.7 hPa NNW 23.3 km/h 57 km/h 81 % 0 mm
18:17 -14.9 °C -16.4 °C 34269.7 hPa NW 18.2 km/h 57 km/h 82 % 0 mm
18:22 -14.9 °C -16.4 °C 34279.9 hPa NNW 20.8 km/h 41.4 km/h 82 % 0 mm
18:32 -14.8 °C -16.4 °C 34279.9 hPa WNW 28.5 km/h 44.1 km/h 82 % 0 mm
18:42 -14.9 °C -16.4 °C 34293.4 hPa West 23.3 km/h 51.8 km/h 83 % 0 mm
18:47 -14.8 °C -16.3 °C 34293.4 hPa NW 23.3 km/h 46.7 km/h 83 % 0 mm
18:52 -14.8 °C -16.3 °C 34303.6 hPa NNW 20.8 km/h 46.7 km/h 83 % 0 mm
18:57 -14.8 °C -16.3 °C 34303.6 hPa West 18.2 km/h 46.7 km/h 83 % 0 mm
19:02 -14.8 °C -16.3 °C 34313.7 hPa WNW 31.1 km/h 46.7 km/h 83 % 0 mm
19:07 -14.8 °C -16.3 °C 34313.7 hPa NNW 7.7 km/h 41.4 km/h 83 % 0 mm
19:12 -14.9 °C -16.4 °C 34313.7 hPa NW 18.2 km/h 38.8 km/h 83 % 0 mm
19:17 -14.9 °C -16.4 °C 34327.3 hPa WNW 18.2 km/h 38.8 km/h 83 % 0 mm
19:22 -15 °C -16.4 °C 34327.3 hPa WNW 46.7 km/h 46.7 km/h 84 % 0 mm
19:27 -15.1 °C -16.4 °C 34327.3 hPa WNW 23.3 km/h 46.7 km/h 84 % 0 mm
19:32 -15.1 °C -16.4 °C 34327.3 hPa NNW 20.8 km/h 46.7 km/h 84 % 0 mm
19:37 -15.1 °C -16.5 °C 34327.3 hPa NNW 10.3 km/h 46.7 km/h 84 % 0 mm
19:42 -15.1 °C -16.5 °C 34327.3 hPa NW 15.6 km/h 44.1 km/h 84 % 0 mm
19:47 -15.1 °C -16.5 °C 34337.4 hPa NW 7.7 km/h 44.1 km/h 84 % 0 mm
19:57 -15.1 °C -16.4 °C 34337.4 hPa NW 18.2 km/h 33.6 km/h 85 % 0 mm
20:07 -15.1 °C -16.4 °C 34347.6 hPa NNW 31.1 km/h 33.6 km/h 85 % 0 mm
20:12 -15.1 °C -16.4 °C 34347.6 hPa NNW 18.2 km/h 36.2 km/h 85 % 0 mm
20:17 -15.1 °C -16.4 °C 34347.6 hPa NW 10.3 km/h 41.4 km/h 85 % 0 mm
20:27 -15.2 °C -16.3 °C 34361.1 hPa NW 5.1 km/h 41.4 km/h 86 % 0 mm
20:32 -15.2 °C -16.4 °C 34361.1 hPa WNW 10.3 km/h 33.6 km/h 86 % 0 mm
20:37 -15.2 °C -16.4 °C 34361.1 hPa NW 5.1 km/h 33.6 km/h 86 % 0 mm
20:42 -15.3 °C -16.4 °C 34361.1 hPa NW 7.7 km/h 33.6 km/h 86 % 0 mm
20:47 -15.3 °C -16.4 °C 34361.1 hPa NNW 7.7 km/h 31.1 km/h 86 % 0 mm
20:52 -15.3 °C -16.5 °C 34361.1 hPa NW 5.1 km/h 31.1 km/h 86 % 0 mm
20:57 -15.3 °C -16.5 °C 34371.3 hPa NW 7.7 km/h 31.1 km/h 86 % 0 mm
21:02 -15.3 °C -16.5 °C 34371.3 hPa WNW 7.7 km/h 28.5 km/h 86 % 0 mm
21:07 -15.3 °C -16.5 °C 34371.3 hPa WNW 7.7 km/h 28.5 km/h 86 % 0 mm
21:12 -15.3 °C -16.5 °C 34384.8 hPa NNW 12.9 km/h 23.3 km/h 86 % 0 mm
21:17 -15.4 °C -16.7 °C 34384.8 hPa NW 15.6 km/h 23.3 km/h 85 % 0 mm
21:22 -15.4 °C -16.7 °C 34384.8 hPa NNW 12.9 km/h 28.5 km/h 85 % 0 mm
21:32 -15.4 °C -16.7 °C 34384.8 hPa NW 10.3 km/h 36.2 km/h 85 % 0 mm
21:37 -15.4 °C -16.7 °C 34384.8 hPa West 5.1 km/h 36.2 km/h 85 % 0 mm
21:42 -15.4 °C -16.6 °C 34384.8 hPa WNW 12.9 km/h 36.2 km/h 86 % 0 mm
21:47 -15.4 °C -16.6 °C 34384.8 hPa NW 12.9 km/h 23.3 km/h 86 % 0 mm
21:52 -15.4 °C -16.6 °C 34384.8 hPa WNW 20.8 km/h 31.1 km/h 86 % 0 mm
21:57 -15.4 °C -16.6 °C 34395 hPa West 20.8 km/h 31.1 km/h 86 % 0 mm
22:02 -15.3 °C -16.6 °C 34395 hPa NW 15.6 km/h 31.1 km/h 85 % 0 mm
22:07 -15.3 °C -16.6 °C 34395 hPa Calm   28.5 km/h 85 % 0 mm
22:12 -15.2 °C -16.4 °C 34395 hPa West 23.3 km/h 49.2 km/h 85 % 0 mm
22:17 -15.1 °C -16.5 °C 34395 hPa NNW 33.6 km/h 49.2 km/h 84 % 0 mm
22:22 -15.1 °C -16.5 °C 34395 hPa WNW 23.3 km/h 49.2 km/h 83 % 0 mm
22:27 -15.1 °C -16.5 °C 34395 hPa NW 18.2 km/h 33.6 km/h 83 % 0 mm
22:32 -15 °C -16.4 °C 34395 hPa NW 12.9 km/h 33.6 km/h 83 % 0 mm
22:37 -15 °C -16.4 °C 34395 hPa NW 20.8 km/h 33.6 km/h 83 % 0 mm
22:42 -15 °C -16.4 °C 34405.1 hPa West 12.9 km/h 33.6 km/h 83 % 0 mm
22:47 -15 °C -16.4 °C 34405.1 hPa WNW 33.6 km/h 38.8 km/h 83 % 0 mm
22:52 -15 °C -16.4 °C 34405.1 hPa WNW 12.9 km/h 44.1 km/h 83 % 0 mm
23:02 -15 °C -16.4 °C 34405.1 hPa NNW 20.8 km/h 44.1 km/h 83 % 0 mm
23:07 -15 °C -16.4 °C 34395 hPa WNW 28.5 km/h 36.2 km/h 83 % 0 mm
23:12 -14.9 °C -16.4 °C 34405.1 hPa NW 12.9 km/h 41.4 km/h 83 % 0 mm
23:17 -14.9 °C -16.4 °C 34405.1 hPa NW 20.8 km/h 46.7 km/h 83 % 0 mm
23:22 -14.9 °C -16.4 °C 34405.1 hPa North 18.2 km/h 46.7 km/h 83 % 0 mm
23:27 -14.9 °C -16.4 °C 34405.1 hPa NW 25.9 km/h 41.4 km/h 83 % 0 mm
23:32 -15 °C -16.4 °C 34405.1 hPa WNW 18.2 km/h 41.4 km/h 83 % 0 mm
23:37 -14.9 °C -16.4 °C 34405.1 hPa NW 10.3 km/h 41.4 km/h 83 % 0 mm
23:42 -14.9 °C -16.4 °C 34418.7 hPa NW 12.9 km/h 41.4 km/h 83 % 0 mm
23:52 -15 °C -16.4 °C 34418.7 hPa WNW 25.9 km/h 41.4 km/h 83 % 0 mm
23:57 -15 °C -16.4 °C 34418.7 hPa NW 10.3 km/h 41.4 km/h 83 % 0 mm
Meteo18
Compliments of Weather Underground - 4 mb

Script developed by  Jim McMurry - jmcmurry@mwt.net Adapted for the template by  Wim van der Kuil - Leuven-Template.eu

You find our weather info also at:

European Weather Network

Weather Underground

Equipment we use:

Weather-station
Davis Vue

Weather-program
Meteobridge

Weather-server
Raspberry PI 2 B+

Provider
1 and 1

Davis Vue

Meteobridge

Raspberry PI 2 B+

1 and 1